createdAt,value
2023-04-27T00:00:42.966Z,9.54
2023-04-27T00:03:09.831Z,9.53
2023-04-27T00:05:39.389Z,9.56
2023-04-27T00:08:07.152Z,9.57
2023-04-27T00:10:34.414Z,9.57
2023-04-27T00:13:01.867Z,9.57
2023-04-27T00:15:29.062Z,9.58
2023-04-27T00:17:55.644Z,9.61
2023-04-27T00:20:22.253Z,9.62
2023-04-27T00:22:48.776Z,9.64
2023-04-27T00:25:15.420Z,9.65
2023-04-27T00:27:41.978Z,9.62
2023-04-27T00:30:09.184Z,9.60
2023-04-27T00:32:35.926Z,9.64
2023-04-27T00:35:02.518Z,9.67
2023-04-27T00:37:29.061Z,9.67
2023-04-27T00:39:55.795Z,9.65
2023-04-27T00:42:24.991Z,9.66
2023-04-27T00:44:51.585Z,9.66
2023-04-27T00:47:18.374Z,9.67
2023-04-27T00:49:45.283Z,9.69
2023-04-27T00:52:11.888Z,9.72
2023-04-27T00:54:38.968Z,9.70
2023-04-27T00:57:05.733Z,9.69
2023-04-27T00:59:32.289Z,9.67
2023-04-27T01:01:59.750Z,9.65
2023-04-27T01:04:27.194Z,9.62
2023-04-27T01:06:54.236Z,9.61
2023-04-27T01:09:21.247Z,9.63
2023-04-27T01:11:47.752Z,9.66
2023-04-27T01:14:14.311Z,9.65
2023-04-27T01:16:40.908Z,9.67
2023-04-27T01:19:07.954Z,9.68
2023-04-27T01:21:34.574Z,9.66
2023-04-27T01:24:01.268Z,9.61
2023-04-27T01:26:27.817Z,9.59
2023-04-27T01:28:54.397Z,9.56
2023-04-27T01:31:21.031Z,9.52
2023-04-27T01:33:47.572Z,9.51
2023-04-27T01:36:14.138Z,9.53
2023-04-27T01:38:41.109Z,9.50
2023-04-27T01:41:09.339Z,9.50
2023-04-27T01:43:39.350Z,9.51
2023-04-27T01:46:13.924Z,9.53
2023-04-27T01:48:41.468Z,9.51
2023-04-27T01:51:08.126Z,9.50
2023-04-27T01:53:34.927Z,9.49
2023-04-27T01:56:01.553Z,9.45
2023-04-27T01:58:28.292Z,9.39
2023-04-27T02:00:54.941Z,9.37
2023-04-27T02:03:21.789Z,9.36
2023-04-27T02:05:48.497Z,9.32
2023-04-27T02:08:15.289Z,9.30
2023-04-27T02:10:41.897Z,9.30
2023-04-27T02:13:09.705Z,9.29
2023-04-27T02:15:36.586Z,9.26
2023-04-27T02:18:03.883Z,9.23
2023-04-27T02:20:33.586Z,9.18
2023-04-27T02:23:01.045Z,9.14
2023-04-27T02:25:27.993Z,9.10
2023-04-27T02:27:55.078Z,9.10
2023-04-27T02:30:22.429Z,9.09
2023-04-27T02:32:49.754Z,9.05
2023-04-27T02:35:16.452Z,9.00
2023-04-27T02:37:43.010Z,8.97
2023-04-27T02:40:09.988Z,8.94
2023-04-27T02:42:38.922Z,8.90
2023-04-27T02:45:08.645Z,8.85
2023-04-27T02:47:35.390Z,8.80
2023-04-27T02:50:02.742Z,8.74
2023-04-27T02:52:29.220Z,8.69
2023-04-27T02:54:55.834Z,8.62
2023-04-27T02:57:22.360Z,8.55
2023-04-27T02:59:48.881Z,8.49
2023-04-27T03:02:15.711Z,8.40
2023-04-27T03:04:43.560Z,8.33
2023-04-27T03:07:10.228Z,8.26
2023-04-27T03:09:36.798Z,8.17
2023-04-27T03:12:04.084Z,8.13
2023-04-27T03:14:30.819Z,8.06
2023-04-27T03:16:57.554Z,8.03
2023-04-27T03:19:24.355Z,8.02
2023-04-27T03:21:51.086Z,7.96
2023-04-27T03:24:17.673Z,7.90
2023-04-27T03:26:44.196Z,7.86
2023-04-27T03:29:10.776Z,7.83
2023-04-27T03:31:37.436Z,7.79
2023-04-27T03:34:04.033Z,7.77
2023-04-27T03:36:32.113Z,7.73
2023-04-27T03:38:58.658Z,7.71
2023-04-27T03:41:25.307Z,7.73
2023-04-27T03:43:53.485Z,7.73
2023-04-27T03:46:20.061Z,7.72
2023-04-27T03:48:47.293Z,7.77
2023-04-27T03:51:14.083Z,7.79
2023-04-27T03:53:40.818Z,7.84
2023-04-27T03:56:07.534Z,7.87
2023-04-27T03:58:34.242Z,7.96
2023-04-27T04:01:01.342Z,8.03
2023-04-27T04:03:28.243Z,8.11
2023-04-27T04:05:54.932Z,8.17
2023-04-27T04:08:21.472Z,8.22
2023-04-27T04:10:48.039Z,8.30
2023-04-27T04:13:14.552Z,8.34
2023-04-27T04:15:41.252Z,8.38
2023-04-27T04:18:07.882Z,8.43
2023-04-27T04:20:36.114Z,8.46
2023-04-27T04:23:02.671Z,8.50
2023-04-27T04:25:29.262Z,8.50
2023-04-27T04:27:56.117Z,8.49
2023-04-27T04:30:23.299Z,8.48
2023-04-27T04:32:49.892Z,8.46
2023-04-27T04:35:19.774Z,8.42
2023-04-27T04:37:46.832Z,8.40
2023-04-27T04:40:14.043Z,8.36
2023-04-27T04:42:40.664Z,8.35
2023-04-27T04:45:07.911Z,8.35
2023-04-27T04:47:35.133Z,8.39
2023-04-27T04:50:02.161Z,8.44
2023-04-27T04:52:28.849Z,8.46
2023-04-27T04:54:55.404Z,8.90
2023-04-27T04:57:22.274Z,9.47
2023-04-27T04:59:48.890Z,9.92
2023-04-27T05:02:15.480Z,10.18
2023-04-27T05:04:42.161Z,10.34
2023-04-27T05:07:08.763Z,10.47
2023-04-27T05:09:35.392Z,10.67
2023-04-27T05:12:02.069Z,10.80
2023-04-27T05:14:28.652Z,10.60
2023-04-27T05:16:55.272Z,10.32
2023-04-27T05:19:22.120Z,10.12
2023-04-27T05:21:48.761Z,9.94
2023-04-27T05:24:15.369Z,9.83
2023-04-27T05:26:43.647Z,9.70
2023-04-27T05:29:10.345Z,9.59
2023-04-27T05:31:37.054Z,9.45
2023-04-27T05:34:03.675Z,9.31
2023-04-27T05:36:30.288Z,9.24
2023-04-27T05:38:56.957Z,9.24
2023-04-27T05:41:23.871Z,9.22
2023-04-27T05:43:50.415Z,9.23
2023-04-27T05:46:17.068Z,9.25
2023-04-27T05:48:43.820Z,9.26
2023-04-27T05:51:10.495Z,9.29
2023-04-27T05:53:37.049Z,9.31
2023-04-27T05:56:06.611Z,9.37
2023-04-27T05:58:33.855Z,9.53
2023-04-27T06:01:01.162Z,9.62
2023-04-27T06:03:27.803Z,9.66
2023-04-27T06:06:00.749Z,9.73
2023-04-27T06:08:27.937Z,9.83
2023-04-27T06:10:54.680Z,9.90
2023-04-27T06:13:21.651Z,9.98
2023-04-27T06:15:48.304Z,10.04
2023-04-27T06:18:15.080Z,10.12
2023-04-27T06:20:42.933Z,10.16
2023-04-27T06:23:09.772Z,10.22
2023-04-27T06:25:38.840Z,10.30
2023-04-27T06:28:05.599Z,10.35
2023-04-27T06:30:32.219Z,10.42
2023-04-27T06:32:58.817Z,10.47
2023-04-27T06:35:25.582Z,10.52
2023-04-27T06:37:52.138Z,10.57
2023-04-27T06:40:18.695Z,10.57
2023-04-27T06:42:45.325Z,10.52
2023-04-27T06:45:12.358Z,10.52
2023-04-27T06:47:38.921Z,10.57
2023-04-27T06:50:06.366Z,10.63
2023-04-27T06:52:33.689Z,10.66
2023-04-27T06:55:00.368Z,10.73
2023-04-27T06:57:27.870Z,10.82
2023-04-27T06:59:54.427Z,10.88
2023-04-27T07:02:21.852Z,10.97
2023-04-27T07:04:49.830Z,11.10
2023-04-27T07:07:16.476Z,11.23
2023-04-27T07:09:44.126Z,11.22
2023-04-27T07:12:10.683Z,11.22
2023-04-27T07:14:37.384Z,11.28
2023-04-27T07:17:03.937Z,11.37
2023-04-27T07:19:30.624Z,11.48
2023-04-27T07:21:57.163Z,11.58
2023-04-27T07:24:23.651Z,11.69
2023-04-27T07:26:50.218Z,11.78
2023-04-27T07:29:26.115Z,11.87
2023-04-27T07:31:53.571Z,12.00
2023-04-27T07:34:20.346Z,12.10
2023-04-27T07:36:46.958Z,12.21
2023-04-27T07:39:13.675Z,12.23
2023-04-27T07:41:41.229Z,12.26
2023-04-27T07:44:07.772Z,12.30
2023-04-27T07:46:34.347Z,12.29
2023-04-27T07:49:01.099Z,12.30
2023-04-27T07:51:30.420Z,12.28
2023-04-27T07:53:56.917Z,12.22
2023-04-27T07:56:23.514Z,12.21
2023-04-27T07:58:50.880Z,12.21
2023-04-27T08:01:19.474Z,12.19
2023-04-27T08:03:47.525Z,12.12
2023-04-27T08:06:14.888Z,12.14
2023-04-27T08:08:41.784Z,12.23
2023-04-27T08:11:12.264Z,12.30
2023-04-27T08:13:38.870Z,12.38
2023-04-27T08:16:05.981Z,12.53
2023-04-27T08:18:32.701Z,12.71
2023-04-27T08:20:59.224Z,12.85
2023-04-27T08:23:29.792Z,12.91
2023-04-27T08:25:56.559Z,13.00
2023-04-27T08:28:23.532Z,13.13
2023-04-27T08:30:50.177Z,13.08
2023-04-27T08:33:16.717Z,13.14
2023-04-27T08:35:43.348Z,13.19
2023-04-27T08:38:09.950Z,13.16
2023-04-27T08:40:36.473Z,13.10
2023-04-27T08:43:03.035Z,13.14
2023-04-27T08:45:29.683Z,13.13
2023-04-27T08:47:57.043Z,13.23
2023-04-27T08:50:24.416Z,13.39
2023-04-27T08:52:52.144Z,13.58
2023-04-27T08:55:19.147Z,13.75
2023-04-27T08:58:12.168Z,13.84
2023-04-27T09:00:43.226Z,13.93
2023-04-27T09:03:23.071Z,14.13
2023-04-27T09:06:03.754Z,14.42
2023-04-27T09:08:50.632Z,14.65
2023-04-27T09:11:29.437Z,14.76
2023-04-27T09:13:56.043Z,14.91
2023-04-27T09:16:28.383Z,15.10
2023-04-27T09:18:56.620Z,15.28
2023-04-27T09:21:27.879Z,15.37
2023-04-27T09:23:55.924Z,15.44
2023-04-27T09:26:27.196Z,15.57
2023-04-27T09:28:58.980Z,15.69
2023-04-27T09:31:35.707Z,15.77
2023-04-27T09:34:03.116Z,15.73
2023-04-27T09:36:30.880Z,15.72
2023-04-27T09:38:57.996Z,15.87
2023-04-27T09:41:25.390Z,16.10
2023-04-27T09:43:56.325Z,16.40
2023-04-27T09:46:24.479Z,16.66
2023-04-27T09:48:52.692Z,16.93
2023-04-27T09:51:19.213Z,17.12
2023-04-27T09:53:52.761Z,17.25
2023-04-27T09:56:55.683Z,17.34
2023-04-27T09:59:41.268Z,17.31
2023-04-27T10:02:24.142Z,17.28
2023-04-27T10:05:15.090Z,17.35
2023-04-27T10:07:41.837Z,17.57
2023-04-27T10:10:20.539Z,17.81
2023-04-27T10:12:58.056Z,17.94
2023-04-27T10:15:29.833Z,17.85
2023-04-27T10:17:59.282Z,17.72
2023-04-27T10:20:31.109Z,17.76
2023-04-27T10:22:58.923Z,17.79
2023-04-27T10:25:28.403Z,17.77
2023-04-27T10:28:02.642Z,17.68
2023-04-27T10:30:36.240Z,17.81
2023-04-27T10:33:10.941Z,17.83
2023-04-27T10:35:43.262Z,17.91
2023-04-27T10:38:18.239Z,17.85
2023-04-27T10:40:46.541Z,17.98
2023-04-27T10:43:17.843Z,18.05
2023-04-27T10:45:45.469Z,18.06
2023-04-27T10:48:15.884Z,18.11
2023-04-27T10:50:44.774Z,18.14
2023-04-27T10:53:11.502Z,18.17
2023-04-27T10:55:38.163Z,18.27
2023-04-27T10:58:04.847Z,18.36
2023-04-27T11:00:41.478Z,18.54
2023-04-27T11:03:15.915Z,18.53
2023-04-27T11:05:48.014Z,18.61
2023-04-27T11:08:15.954Z,18.63
2023-04-27T11:10:50.633Z,18.73
2023-04-27T11:13:22.472Z,18.72
2023-04-27T11:15:58.851Z,18.69
2023-04-27T11:18:29.238Z,18.85
2023-04-27T11:21:07.469Z,18.95
2023-04-27T11:23:38.185Z,18.95
2023-04-27T11:26:14.909Z,19.05
2023-04-27T11:29:01.915Z,19.13
2023-04-27T11:31:41.949Z,19.27
2023-04-27T11:34:08.780Z,19.43
2023-04-27T11:36:36.154Z,19.63
2023-04-27T11:39:06.489Z,19.79
2023-04-27T11:41:37.352Z,19.95
2023-04-27T11:44:08.859Z,20.04
2023-04-27T11:46:36.711Z,20.17
2023-04-27T11:49:08.745Z,20.38
2023-04-27T11:51:38.361Z,20.56
2023-04-27T11:54:08.129Z,20.61
2023-04-27T11:56:39.157Z,20.66
2023-04-27T11:59:06.380Z,20.50
2023-04-27T12:01:38.059Z,20.29
2023-04-27T12:04:05.245Z,20.05
2023-04-27T12:06:33.867Z,19.98
2023-04-27T12:09:00.989Z,20.06
2023-04-27T12:11:30.797Z,20.29
2023-04-27T12:13:57.550Z,20.36
2023-04-27T12:16:24.185Z,20.25
2023-04-27T12:18:50.845Z,20.38
2023-04-27T12:21:17.670Z,20.71
2023-04-27T12:23:44.485Z,20.92
2023-04-27T12:26:14.946Z,20.98
2023-04-27T12:28:41.969Z,20.87
2023-04-27T12:31:08.590Z,20.78
2023-04-27T12:33:35.403Z,20.83
2023-04-27T12:36:02.052Z,20.78
2023-04-27T12:38:29.241Z,20.62
2023-04-27T12:40:56.446Z,20.66
2023-04-27T12:43:22.976Z,20.89
2023-04-27T12:45:49.576Z,21.15
2023-04-27T12:48:17.693Z,21.30
2023-04-27T12:50:44.524Z,21.35
2023-04-27T12:53:11.528Z,21.44
2023-04-27T12:55:38.183Z,21.49
2023-04-27T12:58:05.121Z,21.55
2023-04-27T13:00:32.216Z,21.51
2023-04-27T13:02:58.849Z,21.30
2023-04-27T13:05:26.400Z,21.22
2023-04-27T13:07:53.149Z,21.26
2023-04-27T13:10:19.715Z,21.50
2023-04-27T13:12:46.323Z,21.66
2023-04-27T13:15:12.870Z,21.72
2023-04-27T13:17:40.295Z,21.70
2023-04-27T13:20:09.048Z,21.68
2023-04-27T13:22:35.820Z,21.81
2023-04-27T13:25:02.415Z,21.95
2023-04-27T13:27:28.970Z,22.15
2023-04-27T13:29:56.112Z,22.42
2023-04-27T13:32:23.051Z,22.76
2023-04-27T13:34:49.804Z,22.94
2023-04-27T13:37:17.296Z,22.94
2023-04-27T13:39:43.843Z,23.01
2023-04-27T13:42:10.435Z,22.82
2023-04-27T13:44:37.046Z,22.62
2023-04-27T13:47:03.808Z,22.48
2023-04-27T13:49:30.434Z,22.52
2023-04-27T13:51:57.017Z,22.67
2023-04-27T13:54:23.907Z,22.94
2023-04-27T13:56:50.460Z,23.40
2023-04-27T13:59:17.297Z,23.56
2023-04-27T14:01:44.016Z,23.85
2023-04-27T14:04:10.824Z,24.09
2023-04-27T14:06:37.736Z,24.28
2023-04-27T14:09:04.831Z,24.31
2023-04-27T14:11:37.205Z,23.96
2023-04-27T14:14:08.948Z,23.51
2023-04-27T14:16:35.746Z,23.07
2023-04-27T14:19:02.354Z,22.69
2023-04-27T14:21:28.969Z,22.41
2023-04-27T14:23:55.557Z,22.28
2023-04-27T14:26:22.092Z,22.19
2023-04-27T14:28:48.595Z,22.12
2023-04-27T14:31:15.229Z,22.81
2023-04-27T14:33:41.788Z,23.58
2023-04-27T14:36:08.571Z,23.86
2023-04-27T14:38:35.174Z,24.54
2023-04-27T14:41:03.016Z,24.64
2023-04-27T14:43:29.707Z,24.85
2023-04-27T14:46:04.862Z,25.60
2023-04-27T14:48:38.878Z,26.22
2023-04-27T14:51:06.580Z,26.73
2023-04-27T14:53:33.362Z,27.32
2023-04-27T14:55:59.918Z,27.71
2023-04-27T14:58:26.469Z,27.69
2023-04-27T15:00:52.968Z,26.90
2023-04-27T15:03:20.438Z,26.21
2023-04-27T15:05:47.092Z,25.75
2023-04-27T15:08:13.660Z,25.27
2023-04-27T15:10:40.192Z,24.56
2023-04-27T15:13:06.802Z,24.07
2023-04-27T15:15:33.344Z,24.24
2023-04-27T15:17:59.955Z,24.01
2023-04-27T15:20:27.049Z,23.50
2023-04-27T15:22:53.613Z,23.15
2023-04-27T15:25:20.421Z,22.79
2023-04-27T15:27:47.097Z,22.51
2023-04-27T15:30:14.790Z,22.36
2023-04-27T15:32:41.679Z,22.30
2023-04-27T15:35:08.875Z,22.18
2023-04-27T15:37:36.807Z,21.99
2023-04-27T15:40:04.283Z,21.95
2023-04-27T15:42:30.993Z,21.89
2023-04-27T15:44:58.067Z,21.85
2023-04-27T15:47:24.557Z,21.74
2023-04-27T15:49:57.432Z,21.65
2023-04-27T15:52:24.447Z,21.56
2023-04-27T15:54:51.081Z,21.49
2023-04-27T15:57:18.385Z,21.43
2023-04-27T15:59:44.986Z,21.45
2023-04-27T16:02:12.258Z,21.45
2023-04-27T16:04:38.917Z,21.35
2023-04-27T16:07:08.295Z,21.33
2023-04-27T16:09:35.336Z,21.33
2023-04-27T16:12:03.862Z,21.33
2023-04-27T16:14:30.632Z,21.22
2023-04-27T16:17:00.827Z,21.14
2023-04-27T16:19:27.748Z,21.01
2023-04-27T16:21:54.479Z,20.85
2023-04-27T16:24:21.305Z,20.68
2023-04-27T16:26:48.072Z,20.66
2023-04-27T16:29:14.877Z,20.66
2023-04-27T16:31:42.779Z,20.69
2023-04-27T16:34:09.558Z,20.74
2023-04-27T16:36:36.581Z,20.87
2023-04-27T16:39:05.047Z,20.98
2023-04-27T16:41:31.786Z,21.07
2023-04-27T16:43:58.411Z,21.14
2023-04-27T16:46:25.133Z,21.16
2023-04-27T16:48:51.733Z,21.22
2023-04-27T16:51:18.354Z,21.25
2023-04-27T16:53:44.966Z,21.31
2023-04-27T16:56:13.487Z,21.43
2023-04-27T16:58:40.984Z,21.46
2023-04-27T17:01:07.859Z,21.42
2023-04-27T17:03:36.161Z,21.36
2023-04-27T17:06:03.205Z,21.26
2023-04-27T17:08:29.927Z,21.12
2023-04-27T17:10:56.463Z,21.01
2023-04-27T17:13:23.072Z,20.93
2023-04-27T17:15:50.627Z,20.86
2023-04-27T17:18:17.520Z,20.83
2023-04-27T17:20:44.270Z,20.80
2023-04-27T17:23:10.796Z,20.70
2023-04-27T17:25:37.346Z,20.61
2023-04-27T17:28:04.034Z,20.53
2023-04-27T17:30:30.723Z,20.43
2023-04-27T17:32:57.869Z,20.36
2023-04-27T17:35:24.577Z,20.28
2023-04-27T17:37:52.109Z,20.18
2023-04-27T17:40:21.025Z,20.07
2023-04-27T17:42:48.000Z,19.91
2023-04-27T17:45:15.436Z,19.83
2023-04-27T17:47:42.318Z,19.76
2023-04-27T17:50:09.433Z,19.68
2023-04-27T17:52:36.012Z,19.55
2023-04-27T17:55:02.985Z,19.44
2023-04-27T17:57:29.556Z,19.31
2023-04-27T17:59:56.138Z,19.20
2023-04-27T18:02:23.141Z,19.08
2023-04-27T18:04:50.082Z,18.93
2023-04-27T18:07:18.622Z,18.80
2023-04-27T18:09:45.504Z,18.65
2023-04-27T18:12:12.201Z,18.53
2023-04-27T18:14:39.093Z,18.43
2023-04-27T18:17:05.884Z,18.33
2023-04-27T18:19:32.537Z,18.20
2023-04-27T18:21:59.379Z,18.10
2023-04-27T18:24:26.146Z,17.99
2023-04-27T18:26:52.732Z,17.89
2023-04-27T18:29:19.400Z,17.82
2023-04-27T18:31:46.288Z,17.74
2023-04-27T18:34:13.252Z,17.67
2023-04-27T18:36:40.020Z,17.62
2023-04-27T18:39:06.617Z,17.56
2023-04-27T18:41:33.174Z,17.52
2023-04-27T18:44:04.797Z,17.49
2023-04-27T18:46:32.054Z,17.45
2023-04-27T18:48:58.598Z,17.44
2023-04-27T18:51:26.313Z,17.42
2023-04-27T18:53:53.488Z,17.36
2023-04-27T18:56:20.219Z,17.33
2023-04-27T18:58:48.610Z,17.30
2023-04-27T19:01:25.962Z,17.25
2023-04-27T19:03:53.314Z,17.20
2023-04-27T19:06:21.104Z,17.17
2023-04-27T19:08:48.158Z,17.13
2023-04-27T19:11:14.692Z,17.10
2023-04-27T19:13:43.223Z,17.07
2023-04-27T19:16:10.462Z,17.05
2023-04-27T19:18:37.282Z,17.01
2023-04-27T19:21:04.424Z,16.97
2023-04-27T19:23:31.042Z,16.92
2023-04-27T19:26:02.772Z,16.92
2023-04-27T19:28:36.859Z,16.90
2023-04-27T19:31:03.474Z,16.88
2023-04-27T19:33:30.069Z,16.84
2023-04-27T19:35:58.506Z,16.84
2023-04-27T19:38:25.665Z,16.84
2023-04-27T19:40:52.444Z,16.82
2023-04-27T19:43:19.082Z,16.78
2023-04-27T19:45:45.703Z,16.76
2023-04-27T19:48:12.316Z,16.74
2023-04-27T19:50:41.778Z,16.72
2023-04-27T19:53:08.520Z,16.70
2023-04-27T19:55:35.114Z,16.71
2023-04-27T19:58:01.650Z,16.69
2023-04-27T20:00:28.361Z,16.67
2023-04-27T20:02:55.336Z,16.62
2023-04-27T20:05:22.312Z,16.60
2023-04-27T20:07:51.551Z,16.61
2023-04-27T20:10:18.168Z,16.55
2023-04-27T20:12:55.419Z,16.45
2023-04-27T20:15:23.054Z,16.36
2023-04-27T20:17:49.643Z,16.30
2023-04-27T20:20:16.388Z,16.29
2023-04-27T20:22:42.942Z,16.29
2023-04-27T20:25:09.922Z,16.29
2023-04-27T20:27:36.525Z,16.29
2023-04-27T20:30:03.718Z,16.24
2023-04-27T20:32:30.319Z,16.23
2023-04-27T20:34:56.822Z,16.19
2023-04-27T20:37:24.792Z,16.18
2023-04-27T20:39:54.568Z,16.16
2023-04-27T20:42:21.178Z,16.15
2023-04-27T20:44:48.480Z,16.11
2023-04-27T20:47:15.158Z,16.07
2023-04-27T20:49:42.250Z,16.05
2023-04-27T20:52:08.954Z,16.05
2023-04-27T20:54:36.325Z,16.02
2023-04-27T20:57:08.465Z,16.00
2023-04-27T20:59:35.131Z,15.97
2023-04-27T21:02:01.799Z,15.95
2023-04-27T21:04:28.489Z,15.92
2023-04-27T21:06:55.052Z,15.90
2023-04-27T21:09:21.851Z,15.90
2023-04-27T21:11:48.506Z,15.90
2023-04-27T21:14:15.272Z,15.89
2023-04-27T21:16:41.996Z,15.89
2023-04-27T21:19:08.883Z,15.87
2023-04-27T21:21:35.408Z,15.84
2023-04-27T21:24:07.839Z,15.85
2023-04-27T21:26:34.916Z,15.83
2023-04-27T21:29:01.637Z,15.81
2023-04-27T21:31:28.294Z,15.80
2023-04-27T21:33:54.924Z,15.80
2023-04-27T21:36:21.601Z,15.80
2023-04-27T21:38:48.156Z,15.78
2023-04-27T21:41:16.597Z,15.79
2023-04-27T21:43:44.165Z,15.78
2023-04-27T21:46:10.825Z,15.78
2023-04-27T21:48:37.373Z,15.75
2023-04-27T21:51:04.138Z,15.76
2023-04-27T21:53:30.724Z,15.74
2023-04-27T21:55:57.349Z,15.71
2023-04-27T21:58:24.425Z,15.71
2023-04-27T22:00:51.198Z,15.69
2023-04-27T22:03:18.109Z,15.68
2023-04-27T22:05:45.486Z,15.67
2023-04-27T22:08:12.202Z,15.66
2023-04-27T22:10:38.802Z,15.64
2023-04-27T22:13:17.659Z,15.62
2023-04-27T22:15:45.940Z,15.61
2023-04-27T22:18:14.520Z,15.58
2023-04-27T22:20:42.396Z,15.57
2023-04-27T22:23:09.495Z,15.54
2023-04-27T22:25:36.217Z,15.54
2023-04-27T22:28:02.865Z,15.54
2023-04-27T22:30:29.797Z,15.54
2023-04-27T22:32:56.821Z,15.54
2023-04-27T22:35:27.023Z,15.52
2023-04-27T22:37:57.426Z,15.50
2023-04-27T22:40:24.579Z,15.47
2023-04-27T22:42:51.488Z,15.42
2023-04-27T22:45:18.145Z,15.39
2023-04-27T22:47:46.060Z,15.34
2023-04-27T22:50:13.481Z,15.27
2023-04-27T22:52:42.231Z,15.22
2023-04-27T22:55:10.303Z,15.17
2023-04-27T22:57:37.250Z,15.13
2023-04-27T23:00:05.490Z,15.12
2023-04-27T23:02:32.380Z,15.09
2023-04-27T23:04:59.145Z,15.10
2023-04-27T23:07:25.683Z,15.07
2023-04-27T23:09:52.900Z,15.06
2023-04-27T23:12:20.874Z,15.08
2023-04-27T23:14:47.482Z,15.06
2023-04-27T23:17:15.545Z,15.05
2023-04-27T23:19:42.194Z,15.06
2023-04-27T23:22:08.768Z,15.05
2023-04-27T23:24:35.275Z,15.05
2023-04-27T23:27:01.820Z,15.06
2023-04-27T23:29:28.538Z,15.03
2023-04-27T23:31:55.119Z,15.01
2023-04-27T23:34:21.768Z,15.00
2023-04-27T23:36:48.278Z,14.98
2023-04-27T23:39:14.806Z,14.95
2023-04-27T23:41:41.435Z,14.89
2023-04-27T23:44:08.468Z,14.87
2023-04-27T23:46:35.154Z,14.90
2023-04-27T23:49:01.818Z,14.86
2023-04-27T23:51:28.369Z,14.85
2023-04-27T23:53:54.892Z,14.85
2023-04-27T23:56:23.106Z,14.84
2023-04-27T23:58:49.855Z,14.82
